Time;durP1;ratioP1;P1;durP2;ratioP2;P2;SDS_P1;SDS_P2;PMS_P1;PMS_P2;Temp;Humidity;BMP_temperature;BMP_pressure;BME280_temperature;BME280_humidity;BME280_pressure;Samples;Min_cycle;Max_cycle;Signal;HPM_P1;HPM_P2
2022/07/17 00:00:46;;;;;;;4.33;2.60;;;17.20;86.00;;;;;;4969199;28;20084;-76
2022/07/17 00:03:13;;;;;;;4.40;3.10;;;17.20;86.40;;;;;;4968689;28;20217;-77
2022/07/17 00:05:39;;;;;;;4.32;3.40;;;17.20;87.30;;;;;;4969183;28;20085;-77
2022/07/17 00:08:08;;;;;;;2.87;2.57;;;17.10;87.00;;;;;;5001064;28;20034;-77
2022/07/17 00:10:40;;;;;;;5.80;2.95;;;17.10;87.30;;;;;;5000959;28;20375;-76
2022/07/17 00:13:06;;;;;;;4.35;2.80;;;17.00;87.90;;;;;;4969113;28;20026;-76
2022/07/17 00:15:32;;;;;;;5.13;2.60;;;17.00;87.80;;;;;;4984803;28;20029;-76
2022/07/17 00:17:58;;;;;;;8.73;2.53;;;16.90;87.20;;;;;;4984879;28;20030;-76
2022/07/17 00:20:25;;;;;;;7.30;3.28;;;16.90;87.10;;;;;;4985180;28;20333;-76
2022/07/17 00:22:57;;;;;;;4.50;2.85;;;16.90;87.00;;;;;;4952686;28;20262;-76
2022/07/17 00:25:23;;;;;;;4.82;3.03;;;16.80;87.40;;;;;;4984827;28;20030;-76
2022/07/17 00:27:49;;;;;;;4.47;2.57;;;16.90;87.90;;;;;;4968511;28;20276;-76
2022/07/17 00:30:16;;;;;;;4.60;2.93;;;16.80;87.50;;;;;;4968538;28;20265;-76
2022/07/17 00:32:41;;;;;;;4.47;2.60;;;16.80;88.20;;;;;;4984147;28;20101;-77
2022/07/17 00:35:08;;;;;;;6.37;2.77;;;16.70;87.90;;;;;;4984659;28;20233;-76
2022/07/17 00:37:44;;;;;;;3.75;2.70;;;16.70;87.80;;;;;;4984450;28;20022;-76
2022/07/17 00:40:13;;;;;;;5.83;3.00;;;16.60;88.20;;;;;;4952550;28;20126;-76
2022/07/17 00:42:40;;;;;;;4.20;2.90;;;16.60;88.50;;;;;;4952636;28;20228;-76
2022/07/17 00:45:08;;;;;;;3.20;2.50;;;16.60;88.60;;;;;;4968481;28;20089;-76
2022/07/17 00:47:33;;;;;;;5.45;3.17;;;16.50;88.50;;;;;;5000400;28;20026;-76
2022/07/17 00:49:59;;;;;;;3.87;2.47;;;16.50;89.00;;;;;;5000744;28;20029;-76
2022/07/17 00:52:25;;;;;;;3.60;2.63;;;16.50;89.20;;;;;;5001773;28;20026;-76
2022/07/17 00:54:51;;;;;;;2.90;2.43;;;16.40;89.00;;;;;;4983632;28;20023;-76
2022/07/17 00:57:16;;;;;;;6.30;2.90;;;16.30;89.60;;;;;;4952375;28;20102;-77
2022/07/17 00:59:42;;;;;;;3.73;2.30;;;16.30;89.60;;;;;;4952408;28;20033;-76
2022/07/17 01:02:11;;;;;;;6.80;2.77;;;16.20;90.00;;;;;;5000665;28;20344;-77
2022/07/17 01:04:37;;;;;;;5.63;2.72;;;16.30;90.40;;;;;;4968245;28;20145;-75
2022/07/17 01:07:05;;;;;;;4.13;2.92;;;16.20;90.20;;;;;;4968182;28;20022;-76
2022/07/17 01:09:31;;;;;;;4.03;2.47;;;16.20;90.40;;;;;;4981515;28;20046;-76
2022/07/17 01:11:57;;;;;;;2.83;2.38;;;16.10;90.60;;;;;;4973549;28;20022;-76
2022/07/17 01:14:23;;;;;;;3.73;2.53;;;16.10;91.00;;;;;;4975749;28;20078;-77
2022/07/17 01:16:50;;;;;;;4.20;2.40;;;16.10;91.20;;;;;;4984332;28;20022;-77
2022/07/17 01:19:16;;;;;;;;;;;16.10;90.90;;;;;;4979332;28;20053;-76
2022/07/17 01:21:44;;;;;;;3.42;2.55;;;16.10;91.00;;;;;;4992244;28;19917;-76
2022/07/17 01:24:10;;;;;;;3.17;2.67;;;16.10;90.80;;;;;;4975211;28;20181;-76
2022/07/17 01:26:35;;;;;;;5.20;2.60;;;16.10;91.00;;;;;;4967613;28;20101;-76
2022/07/17 01:29:01;;;;;;;5.80;2.63;;;16.10;91.20;;;;;;4984090;28;20053;-76
2022/07/17 01:31:27;;;;;;;4.77;2.50;;;16.00;90.90;;;;;;4968071;28;20027;-76
2022/07/17 01:33:53;;;;;;;4.60;2.20;;;16.10;91.00;;;;;;4999881;28;20027;-76
2022/07/17 01:36:23;;;;;;;4.23;2.63;;;16.10;90.80;;;;;;4951977;28;20018;-76
2022/07/17 01:38:49;;;;;;;4.28;2.20;;;16.00;90.50;;;;;;5009480;23;20348;-71
2022/07/17 01:41:15;;;;;;;5.00;2.58;;;16.00;90.80;;;;;;5021970;28;20204;-70
2022/07/17 01:43:41;;;;;;;4.37;2.47;;;15.90;90.60;;;;;;5012023;28;20037;-71
2022/07/17 01:46:07;;;;;;;5.20;2.83;;;15.90;91.00;;;;;;5005099;28;20018;-71
2022/07/17 01:48:32;;;;;;;8.33;3.47;;;15.90;91.50;;;;;;5006030;28;20069;-70
2022/07/17 01:50:58;;;;;;;3.90;2.80;;;15.90;91.40;;;;;;5005180;28;20092;-71
2022/07/17 01:53:24;;;;;;;4.60;2.20;;;15.80;91.30;;;;;;5005666;28;20058;-70
2022/07/17 01:55:50;;;;;;;3.73;2.60;;;15.80;91.40;;;;;;5006117;28;20018;-70
2022/07/17 01:58:16;;;;;;;4.57;2.17;;;15.70;91.20;;;;;;5005938;28;20022;-70
2022/07/17 02:00:42;;;;;;;3.23;2.30;;;15.70;91.40;;;;;;4988834;28;20026;-71
2022/07/17 02:03:07;;;;;;;2.40;2.00;;;15.60;91.30;;;;;;5004450;28;20030;-71
2022/07/17 02:05:33;;;;;;;2.70;1.90;;;15.60;91.70;;;;;;5005841;28;20034;-70
2022/07/17 02:07:59;;;;;;;3.50;2.53;;;15.50;91.50;;;;;;5004193;28;20102;-70
2022/07/17 02:10:25;;;;;;;4.57;2.70;;;15.60;91.40;;;;;;4988323;28;20030;-71
2022/07/17 02:12:50;;;;;;;4.47;2.77;;;15.50;92.10;;;;;;5004370;28;20360;-71
2022/07/17 02:15:16;;;;;;;4.05;2.38;;;15.50;92.30;;;;;;5005699;28;20030;-70
2022/07/17 02:17:42;;;;;;;4.67;2.43;;;15.50;92.10;;;;;;5004526;28;20034;-70
2022/07/17 02:20:09;;;;;;;5.57;2.80;;;15.40;92.20;;;;;;5005607;28;20041;-70
2022/07/17 02:22:35;;;;;;;4.28;2.95;;;15.40;92.20;;;;;;5004158;28;20038;-71
2022/07/17 02:25:01;;;;;;;4.55;2.35;;;15.40;92.40;;;;;;5003245;28;20316;-71
2022/07/17 02:27:27;;;;;;;4.83;2.90;;;15.30;92.70;;;;;;5004381;28;20085;-70
2022/07/17 02:29:52;;;;;;;8.60;2.40;;;15.30;92.80;;;;;;5004444;28;20030;-70
2022/07/17 02:32:18;;;;;;;4.63;2.73;;;15.20;92.90;;;;;;5005507;28;20027;-71
2022/07/17 02:34:44;;;;;;;4.97;3.20;;;15.10;93.20;;;;;;5005235;28;20037;-70
2022/07/17 02:37:10;;;;;;;6.15;3.30;;;15.10;93.40;;;;;;5005231;28;20034;-70
2022/07/17 02:39:36;;;;;;;4.13;3.53;;;15.00;93.70;;;;;;5004987;28;20030;-70
2022/07/17 02:42:01;;;;;;;6.30;2.80;;;15.00;93.90;;;;;;5005406;28;20314;-70
2022/07/17 02:44:27;;;;;;;4.77;2.80;;;14.90;94.00;;;;;;5005005;28;20038;-72
2022/07/17 02:46:53;;;;;;;4.63;2.70;;;14.90;94.30;;;;;;5005070;28;20042;-72
2022/07/17 02:49:18;;;;;;;5.90;2.60;;;14.90;94.70;;;;;;5004050;28;20030;-72
2022/07/17 02:51:44;;;;;;;3.93;2.80;;;14.90;94.70;;;;;;5005250;28;20058;-72
2022/07/17 02:54:10;;;;;;;4.73;3.00;;;14.90;94.70;;;;;;5004338;28;20030;-72
2022/07/17 02:56:36;;;;;;;6.13;2.90;;;14.90;94.40;;;;;;5003890;28;20022;-72
2022/07/17 02:59:01;;;;;;;7.73;3.87;;;14.90;94.30;;;;;;5004893;28;20045;-72
2022/07/17 03:01:27;;;;;;;3.22;2.42;;;14.80;94.30;;;;;;5003792;28;20333;-72
2022/07/17 03:03:53;;;;;;;6.47;2.50;;;14.80;94.30;;;;;;5004604;28;20022;-72
2022/07/17 03:06:19;;;;;;;4.10;2.87;;;14.80;94.50;;;;;;5004837;28;20030;-72
2022/07/17 03:08:44;;;;;;;5.13;2.77;;;14.80;94.80;;;;;;5004441;28;20026;-71
2022/07/17 03:11:10;;;;;;;5.03;3.00;;;14.70;94.80;;;;;;5004646;28;20037;-71
2022/07/17 03:13:36;;;;;;;3.90;2.70;;;14.70;94.80;;;;;;5004481;28;20102;-72
2022/07/17 03:16:01;;;;;;;5.00;3.23;;;14.70;94.50;;;;;;5004634;28;20033;-72
2022/07/17 03:18:27;;;;;;;5.38;2.67;;;14.60;94.60;;;;;;5003459;28;20022;-71
2022/07/17 03:20:53;;;;;;;5.23;3.27;;;14.60;94.90;;;;;;5004674;28;20093;-71
2022/07/17 03:23:19;;;;;;;4.50;2.58;;;14.50;95.10;;;;;;5003998;28;20122;-71
2022/07/17 03:25:44;;;;;;;7.88;3.40;;;14.50;95.60;;;;;;5004336;28;20022;-71
2022/07/17 03:28:10;;;;;;;5.63;2.28;;;14.40;95.60;;;;;;5004365;28;20095;-70
2022/07/17 03:30:36;;;;;;;4.45;3.05;;;14.40;95.70;;;;;;5004343;28;20022;-70
2022/07/17 03:33:02;;;;;;;3.85;2.78;;;14.30;95.40;;;;;;5004120;28;20022;-70
2022/07/17 03:35:27;;;;;;;4.65;2.63;;;14.30;96.00;;;;;;5004260;28;20014;-70
2022/07/17 03:37:53;;;;;;;4.70;2.90;;;14.30;95.80;;;;;;5003746;28;20229;-70
2022/07/17 03:40:19;;;;;;;3.33;2.60;;;14.30;95.80;;;;;;5004211;28;20341;-70
2022/07/17 03:42:44;;;;;;;3.10;2.50;;;14.20;95.80;;;;;;5003841;28;20312;-71
2022/07/17 03:45:10;;;;;;;4.65;2.25;;;14.20;95.70;;;;;;5004094;28;20229;-70
2022/07/17 03:47:36;;;;;;;4.33;2.53;;;14.20;96.20;;;;;;5003867;28;20030;-70
2022/07/17 03:50:02;;;;;;;4.00;2.75;;;14.10;96.10;;;;;;5004124;28;20022;-70
2022/07/17 03:52:28;;;;;;;5.75;3.10;;;14.00;96.10;;;;;;5002593;28;20033;-70
2022/07/17 03:54:54;;;;;;;3.53;2.53;;;13.90;96.30;;;;;;5003699;28;20097;-70
2022/07/17 03:57:19;;;;;;;2.50;2.07;;;13.90;96.50;;;;;;5003748;28;20026;-70
2022/07/17 03:59:45;;;;;;;4.40;2.73;;;13.90;96.60;;;;;;5003810;28;20085;-70
2022/07/17 04:02:11;;;;;;;2.80;2.58;;;13.90;96.40;;;;;;5003790;28;20060;-70
2022/07/17 04:04:36;;;;;;;4.40;2.43;;;13.90;96.90;;;;;;5003643;28;20329;-70
2022/07/17 04:07:02;;;;;;;4.87;3.17;;;13.90;96.80;;;;;;5002901;28;20026;-70
2022/07/17 04:09:28;;;;;;;3.60;3.10;;;13.90;96.60;;;;;;5003500;28;20369;-70
2022/07/17 04:11:54;;;;;;;5.17;3.00;;;13.80;96.90;;;;;;5003840;28;20034;-70
2022/07/17 04:14:20;;;;;;;7.25;2.55;;;13.80;97.00;;;;;;5003470;28;20080;-70
2022/07/17 04:16:45;;;;;;;5.30;2.97;;;13.80;97.00;;;;;;5003695;28;20022;-70
2022/07/17 04:19:11;;;;;;;4.53;2.92;;;13.80;97.20;;;;;;5003598;28;20036;-70
2022/07/17 04:21:37;;;;;;;5.00;2.90;;;13.70;97.40;;;;;;5003537;28;20202;-69
2022/07/17 04:24:03;;;;;;;3.33;2.60;;;13.80;97.60;;;;;;5003085;28;20054;-69
2022/07/17 04:26:29;;;;;;;7.60;2.85;;;13.80;97.80;;;;;;5002513;28;20041;-69
2022/07/17 04:28:54;;;;;;;3.97;2.50;;;13.70;97.90;;;;;;5003458;28;20080;-69
2022/07/17 04:31:20;;;;;;;4.32;2.60;;;13.70;97.90;;;;;;5003815;28;20082;-70
2022/07/17 04:33:46;;;;;;;4.13;2.40;;;13.70;98.10;;;;;;5003350;28;20329;-70
2022/07/17 04:36:12;;;;;;;4.37;2.43;;;13.70;98.40;;;;;;5003290;28;20018;-69
2022/07/17 04:38:37;;;;;;;5.72;3.65;;;13.70;98.20;;;;;;5002916;28;20037;-69
2022/07/17 04:41:03;;;;;;;3.63;2.83;;;13.70;98.40;;;;;;5003340;28;20030;-70
2022/07/17 04:43:29;;;;;;;3.60;1.92;;;13.70;98.30;;;;;;5003004;28;20203;-69
2022/07/17 04:45:55;;;;;;;2.93;2.50;;;13.70;98.40;;;;;;5003258;28;20091;-70
2022/07/17 04:48:20;;;;;;;3.38;2.38;;;13.70;98.10;;;;;;5003010;28;20022;-69
2022/07/17 04:50:46;;;;;;;4.35;2.38;;;13.70;98.30;;;;;;5001954;28;20041;-69
2022/07/17 04:53:12;;;;;;;3.37;2.30;;;13.70;98.90;;;;;;5002777;28;20022;-70
2022/07/17 04:55:38;;;;;;;4.15;2.45;;;13.80;98.80;;;;;;5003012;28;20433;-70
2022/07/17 04:58:04;;;;;;;2.80;2.10;;;13.90;98.10;;;;;;5002946;28;20053;-70
2022/07/17 05:00:29;;;;;;;3.40;2.17;;;13.90;98.90;;;;;;5003127;28;20283;-69
2022/07/17 05:02:55;;;;;;;4.13;2.57;;;14.10;98.60;;;;;;5002827;28;20022;-70
2022/07/17 05:05:21;;;;;;;3.07;2.07;;;14.10;98.10;;;;;;5003574;28;20050;-70
2022/07/17 05:07:48;;;;;;;5.05;1.95;;;14.10;98.10;;;;;;5002673;28;20037;-70
2022/07/17 05:10:13;;;;;;;3.28;2.20;;;14.10;97.60;;;;;;5002985;28;20023;-70
2022/07/17 05:12:39;;;;;;;5.68;2.83;;;14.20;97.90;;;;;;5002845;28;20035;-70
2022/07/17 05:15:05;;;;;;;3.30;2.35;;;14.20;98.70;;;;;;5002924;28;20042;-70
2022/07/17 05:17:31;;;;;;;2.90;2.17;;;14.20;99.60;;;;;;5002349;28;20030;-71
2022/07/17 05:19:57;;;;;;;2.67;2.03;;;14.30;99.90;;;;;;5007009;28;20027;-70
2022/07/17 05:22:23;;;;;;;4.37;2.57;;;14.40;99.90;;;;;;5006845;28;20026;-71
2022/07/17 05:24:48;;;;;;;2.20;1.90;;;14.40;99.90;;;;;;5005568;28;20050;-70
2022/07/17 05:27:14;;;;;;;3.70;1.90;;;14.50;99.20;;;;;;5005685;28;20036;-70
2022/07/17 05:29:40;;;;;;;3.67;2.07;;;14.50;99.80;;;;;;5006836;28;20014;-70
2022/07/17 05:32:06;;;;;;;7.03;2.20;;;14.60;99.90;;;;;;5005823;28;20045;-70
2022/07/17 05:34:31;;;;;;;4.67;2.10;;;14.70;98.90;;;;;;5006233;28;20221;-70
2022/07/17 05:36:57;;;;;;;3.88;1.90;;;14.70;99.00;;;;;;5006566;28;20033;-71
2022/07/17 05:39:23;;;;;;;3.60;1.77;;;14.80;98.40;;;;;;5006436;28;20032;-72
2022/07/17 05:41:50;;;;;;;3.92;1.65;;;14.90;98.40;;;;;;5006503;28;20085;-69
2022/07/17 05:44:16;;;;;;;4.70;1.73;;;14.90;98.10;;;;;;5006305;28;20022;-70
2022/07/17 05:46:42;;;;;;;3.35;1.63;;;15.00;97.80;;;;;;5006402;28;20018;-70
2022/07/17 05:49:08;;;;;;;5.23;1.70;;;15.10;97.00;;;;;;5006215;28;20026;-71
2022/07/17 05:51:33;;;;;;;5.83;1.90;;;15.10;96.60;;;;;;5006272;28;20364;-72
2022/07/17 05:53:59;;;;;;;4.53;1.80;;;15.20;96.70;;;;;;5005748;28;20030;-70
2022/07/17 05:56:25;;;;;;;2.70;1.70;;;15.30;96.90;;;;;;5006158;28;20022;-70
2022/07/17 05:58:51;;;;;;;2.67;1.60;;;15.30;95.60;;;;;;5005201;28;20089;-71
2022/07/17 06:01:16;;;;;;;4.63;1.87;;;15.40;95.70;;;;;;5006171;28;20034;-69
2022/07/17 06:03:42;;;;;;;3.53;1.93;;;15.50;95.40;;;;;;5004570;28;20029;-69
2022/07/17 06:06:08;;;;;;;2.67;1.63;;;15.50;96.10;;;;;;5006091;28;20057;-70
2022/07/17 06:08:33;;;;;;;2.47;1.90;;;15.60;96.10;;;;;;5005941;28;20225;-72
2022/07/17 06:10:59;;;;;;;2.97;1.60;;;15.60;95.10;;;;;;5006046;28;20030;-69
2022/07/17 06:13:25;;;;;;;4.13;1.63;;;15.70;94.20;;;;;;5005964;28;20257;-70
2022/07/17 06:15:51;;;;;;;2.60;1.33;;;15.70;94.00;;;;;;5005778;28;20022;-70
2022/07/17 06:18:16;;;;;;;3.20;1.77;;;15.80;95.20;;;;;;5005981;28;20030;-71
2022/07/17 06:20:42;;;;;;;5.40;1.97;;;15.90;94.70;;;;;;5005935;28;20053;-70
2022/07/17 06:23:08;;;;;;;4.97;1.40;;;16.00;94.80;;;;;;5005237;28;20026;-71
2022/07/17 06:25:34;;;;;;;2.93;1.37;;;16.10;95.20;;;;;;5004743;28;20106;-70
2022/07/17 06:27:59;;;;;;;5.43;1.80;;;16.20;93.80;;;;;;5005495;28;20022;-71
2022/07/17 06:30:25;;;;;;;6.10;1.63;;;16.50;93.80;;;;;;5004781;28;20026;-70
2022/07/17 06:32:51;;;;;;;3.80;1.20;;;16.90;94.50;;;;;;5005158;28;20030;-70
2022/07/17 06:35:17;;;;;;;6.93;1.63;;;17.10;91.90;;;;;;5005316;28;20329;-71
2022/07/17 06:37:42;;;;;;;4.57;1.30;;;17.10;92.30;;;;;;5005149;28;20097;-70
2022/07/17 06:40:08;;;;;;;7.07;1.97;;;17.10;92.20;;;;;;5005142;28;20320;-70
2022/07/17 06:42:34;;;;;;;3.67;1.13;;;17.10;92.50;;;;;;5005100;28;20225;-71
2022/07/17 06:45:00;;;;;;;2.67;1.20;;;17.10;92.40;;;;;;5004988;28;20026;-70
2022/07/17 06:47:25;;;;;;;3.50;1.30;;;17.10;92.60;;;;;;5003899;28;20026;-70
2022/07/17 06:49:51;;;;;;;3.63;1.00;;;17.00;92.80;;;;;;5004983;28;20034;-71
2022/07/17 06:52:17;;;;;;;1.57;1.00;;;17.00;90.90;;;;;;5005076;28;20085;-71
2022/07/17 06:54:43;;;;;;;2.47;1.17;;;17.00;91.90;;;;;;5004609;28;20030;-70
2022/07/17 06:57:08;;;;;;;2.40;1.23;;;17.10;92.60;;;;;;5004986;28;20033;-70
2022/07/17 06:59:34;;;;;;;2.53;1.50;;;17.10;93.10;;;;;;5005472;28;20034;-70
2022/07/17 07:02:00;;;;;;;3.57;1.23;;;17.10;91.00;;;;;;5003469;28;20041;-70
2022/07/17 07:04:26;;;;;;;6.63;1.30;;;17.10;91.10;;;;;;5003735;28;20022;-71
2022/07/17 07:06:51;;;;;;;1.80;1.00;;;17.20;91.80;;;;;;5004732;28;20049;-70
2022/07/17 07:09:17;;;;;;;2.97;1.03;;;17.20;92.30;;;;;;5003374;28;20029;-70
2022/07/17 07:11:43;;;;;;;4.40;1.17;;;17.20;91.80;;;;;;5003607;28;20022;-70
2022/07/17 07:14:09;;;;;;;4.00;1.10;;;17.30;91.40;;;;;;5003287;28;20440;-70
2022/07/17 07:16:34;;;;;;;3.47;1.40;;;17.30;91.40;;;;;;5004407;28;20101;-70
2022/07/17 07:19:00;;;;;;;4.87;1.50;;;17.40;89.90;;;;;;5004366;28;20329;-69
2022/07/17 07:21:26;;;;;;;3.50;1.20;;;17.50;90.30;;;;;;5004532;28;20068;-70
2022/07/17 07:23:53;;;;;;;7.03;1.23;;;17.50;90.80;;;;;;5002721;28;20472;-70
2022/07/17 07:26:19;;;;;;;6.53;1.40;;;17.60;91.90;;;;;;4987124;28;20026;-70
2022/07/17 07:28:45;;;;;;;5.13;1.10;;;17.60;91.90;;;;;;5004266;28;20030;-70
2022/07/17 07:31:10;;;;;;;6.07;1.20;;;17.70;91.90;;;;;;5004293;28;20030;-70
2022/07/17 07:33:37;;;;;;;3.90;1.23;;;17.80;91.40;;;;;;5003889;28;20022;-71
2022/07/17 07:36:03;;;;;;;;;;;17.80;91.30;;;;;;5004631;28;20025;-71
2022/07/17 07:38:29;;;;;;;3.03;1.20;;;17.90;88.70;;;;;;5003831;28;19985;-70
2022/07/17 07:40:55;;;;;;;2.03;0.90;;;18.00;89.30;;;;;;5003351;28;20027;-71
2022/07/17 07:43:21;;;;;;;6.27;1.90;;;18.10;90.10;;;;;;5002576;28;20089;-70
2022/07/17 07:45:47;;;;;;;4.25;1.13;;;18.20;85.70;;;;;;4986778;28;20029;-70
2022/07/17 07:48:12;;;;;;;5.33;1.40;;;18.20;87.20;;;;;;5002680;28;20030;-71
2022/07/17 07:50:41;;;;;;;4.20;1.43;;;18.30;86.70;;;;;;5003988;28;20092;-70
2022/07/17 07:53:07;;;;;;;3.38;1.45;;;18.40;87.80;;;;;;5003507;28;20026;-71
2022/07/17 07:55:33;;;;;;;3.20;1.30;;;18.50;86.10;;;;;;5003851;28;20022;-71
2022/07/17 07:58:07;;;;;;;2.83;1.30;;;18.50;85.30;;;;;;5003787;28;20040;-71
2022/07/17 08:00:33;;;;;;;5.10;1.20;;;18.70;85.20;;;;;;5002763;28;20037;-71
2022/07/17 08:02:59;;;;;;;3.60;1.10;;;18.70;86.30;;;;;;5003506;28;20029;-71
2022/07/17 08:05:25;;;;;;;5.90;1.85;;;18.80;85.70;;;;;;5003567;28;20034;-69
2022/07/17 08:07:50;;;;;;;4.27;1.20;;;18.90;85.20;;;;;;5002135;28;20376;-69
2022/07/17 08:10:16;;;;;;;3.17;1.40;;;19.00;86.00;;;;;;5002125;28;20080;-69
2022/07/17 08:12:42;;;;;;;2.60;1.10;;;19.10;84.80;;;;;;5003171;28;20018;-69
2022/07/17 08:15:08;;;;;;;5.50;1.27;;;19.10;86.20;;;;;;5003205;28;20014;-69
2022/07/17 08:17:34;;;;;;;3.85;1.50;;;19.20;82.70;;;;;;5002131;28;20049;-69
2022/07/17 08:20:00;;;;;;;5.13;1.40;;;19.30;82.80;;;;;;5003305;28;20040;-71
2022/07/17 08:22:25;;;;;;;4.40;1.00;;;19.40;83.80;;;;;;5002062;28;20033;-70
2022/07/17 08:24:51;;;;;;;3.13;1.23;;;19.40;83.00;;;;;;5002815;28;20125;-70
2022/07/17 08:27:17;;;;;;;3.90;1.00;;;19.50;82.40;;;;;;5002225;28;20030;-71
2022/07/17 08:29:43;;;;;;;2.63;1.00;;;19.60;81.70;;;;;;5003232;28;20035;-71
2022/07/17 08:32:08;;;;;;;5.10;1.37;;;19.70;80.10;;;;;;5003071;28;20034;-70
2022/07/17 08:34:34;;;;;;;5.37;1.30;;;19.80;79.40;;;;;;5002921;28;20049;-70
2022/07/17 08:37:00;;;;;;;3.30;1.30;;;19.90;80.30;;;;;;5001941;28;20038;-70
2022/07/17 08:39:26;;;;;;;3.97;1.33;;;20.00;81.80;;;;;;5001751;28;20083;-71
2022/07/17 08:41:51;;;;;;;5.50;1.10;;;20.10;80.60;;;;;;5003078;28;20026;-70
2022/07/17 08:44:17;;;;;;;2.80;1.03;;;20.10;81.90;;;;;;5002862;28;20114;-71
2022/07/17 08:46:43;;;;;;;3.33;1.10;;;20.10;83.80;;;;;;5001779;28;20085;-70
2022/07/17 08:49:08;;;;;;;3.53;1.30;;;20.10;83.20;;;;;;5002958;28;20034;-71
2022/07/17 08:51:34;;;;;;;4.23;1.10;;;20.10;84.00;;;;;;5002083;28;20030;-71
2022/07/17 08:54:00;;;;;;;3.37;1.37;;;20.20;84.20;;;;;;5002119;28;20026;-70
2022/07/17 08:56:26;;;;;;;2.80;1.43;;;20.20;83.60;;;;;;5002058;28;20210;-70
2022/07/17 08:58:53;;;;;;;2.63;1.30;;;20.20;80.00;;;;;;4985697;28;20034;-71
2022/07/17 09:01:19;;;;;;;2.53;1.10;;;20.30;79.90;;;;;;5002970;28;20076;-70
2022/07/17 09:04:06;;;;;;;3.58;1.15;;;20.50;80.20;;;;;;5001644;28;20034;-70
2022/07/17 09:06:33;;;;;;;6.13;1.20;;;20.60;79.10;;;;;;5002895;28;20038;-71
2022/07/17 09:09:10;;;;;;;2.63;1.02;;;20.80;78.60;;;;;;5001193;28;20042;-70
2022/07/17 09:12:05;;;;;;;4.97;0.90;;;20.80;79.50;;;;;;5002802;28;20024;-71
2022/07/17 09:14:41;;;;;;;2.90;1.17;;;20.90;76.80;;;;;;4990019;28;20035;-71
2022/07/17 09:17:08;;;;;;;2.03;1.33;;;20.90;76.90;;;;;;5002705;28;20336;-71
2022/07/17 09:19:42;;;;;;;8.93;2.40;;;21.00;77.70;;;;;;4985623;28;20057;-71
2022/07/17 09:22:12;;;;;;;3.83;1.45;;;21.00;75.60;;;;;;4986506;28;20129;-71
2022/07/17 09:24:53;;;;;;;4.07;1.60;;;21.10;76.90;;;;;;5002169;28;20026;-70
2022/07/17 09:27:29;;;;;;;6.70;1.73;;;21.10;76.90;;;;;;5001660;28;20085;-71
2022/07/17 09:30:03;;;;;;;4.47;1.17;;;21.10;76.40;;;;;;5002549;28;20021;-70
2022/07/17 09:32:33;;;;;;;5.97;1.20;;;21.20;76.70;;;;;;5002474;28;20372;-71
2022/07/17 09:35:00;;;;;;;4.45;1.20;;;21.20;74.80;;;;;;5001379;28;20034;-71
2022/07/17 09:37:26;;;;;;;;;;;21.20;74.20;;;;;;5002830;28;20321;-70
2022/07/17 09:39:53;;;;;;;2.28;1.25;;;21.20;74.80;;;;;;5002351;28;19910;-71
2022/07/17 09:42:24;;;;;;;4.95;1.38;;;21.30;76.50;;;;;;5002639;28;20093;-71
2022/07/17 09:45:08;;;;;;;3.63;1.38;;;21.30;75.50;;;;;;5002641;28;20153;-71
2022/07/17 09:47:36;;;;;;;2.13;1.20;;;21.30;74.70;;;;;;5002754;28;20034;-71
2022/07/17 09:50:03;;;;;;;3.03;1.25;;;21.30;73.40;;;;;;5001755;28;20241;-71
2022/07/17 09:52:32;;;;;;;2.72;1.08;;;21.40;73.80;;;;;;5002607;28;20072;-71
2022/07/17 09:54:59;;;;;;;3.85;1.65;;;21.40;73.90;;;;;;5000932;28;20093;-73
2022/07/17 09:57:28;;;;;;;3.33;1.20;;;21.50;74.40;;;;;;5001936;28;20085;-76
2022/07/17 09:59:55;;;;;;;2.50;1.30;;;21.50;78.40;;;;;;4986026;28;20031;-75
2022/07/17 10:02:21;;;;;;;1.85;1.20;;;21.60;79.80;;;;;;5002623;28;20033;-73
2022/07/17 10:04:47;;;;;;;2.20;1.17;;;21.80;76.00;;;;;;5002519;28;20025;-73
2022/07/17 10:07:13;;;;;;;4.60;1.35;;;21.90;76.60;;;;;;5005115;28;20034;-75
2022/07/17 10:09:39;;;;;;;3.10;1.07;;;22.00;77.10;;;;;;4988894;28;20097;-75
2022/07/17 10:12:06;;;;;;;2.83;1.20;;;22.10;77.50;;;;;;4994237;28;20018;-75
2022/07/17 10:14:32;;;;;;;3.72;1.42;;;22.10;78.40;;;;;;4984824;28;20034;-75
2022/07/17 10:17:08;;;;;;;4.60;1.15;;;22.20;75.20;;;;;;4975362;28;20313;-75
2022/07/17 10:19:50;;;;;;;3.63;0.98;;;22.30;76.80;;;;;;4969353;28;20049;-75
2022/07/17 10:22:16;;;;;;;1.80;1.17;;;22.30;77.60;;;;;;4956910;28;20022;-75
2022/07/17 10:24:47;;;;;;;3.67;0.90;;;22.30;78.20;;;;;;4969145;28;20329;-74
2022/07/17 10:27:35;;;;;;;6.05;1.33;;;22.40;77.90;;;;;;4998319;28;20046;-74
2022/07/17 10:30:10;;;;;;;3.38;0.90;;;22.40;77.00;;;;;;5005857;28;20018;-74
2022/07/17 10:32:36;;;;;;;2.28;0.98;;;22.40;73.70;;;;;;5005426;28;20415;-75
2022/07/17 10:35:10;;;;;;;5.63;1.58;;;22.40;75.10;;;;;;5004278;28;20086;-74
2022/07/17 10:37:35;;;;;;;3.22;1.20;;;22.40;73.80;;;;;;5005310;28;20064;-74
2022/07/17 10:40:23;;;;;;;4.70;2.00;;;22.40;74.80;;;;;;5005066;28;20026;-74
2022/07/17 10:42:59;;;;;;;3.88;1.40;;;22.50;73.90;;;;;;5004152;28;20034;-74
2022/07/17 10:45:39;;;;;;;5.53;1.45;;;22.60;75.30;;;;;;5005016;28;20093;-74
2022/07/17 10:48:16;;;;;;;4.90;0.88;;;22.70;76.20;;;;;;5005012;28;20390;-74
2022/07/17 10:50:49;;;;;;;2.90;1.10;;;22.90;74.40;;;;;;4989337;28;20022;-74
2022/07/17 10:53:17;;;;;;;2.00;1.10;;;23.00;71.00;;;;;;5003680;28;20018;-74
2022/07/17 10:55:45;;;;;;;3.38;1.58;;;23.00;71.90;;;;;;4987708;28;20026;-74
2022/07/17 10:58:22;;;;;;;6.13;1.55;;;23.10;70.70;;;;;;4987843;28;20076;-74
2022/07/17 11:01:10;;;;;;;1.88;0.98;;;23.20;70.70;;;;;;4988373;28;20109;-74
2022/07/17 11:03:52;;;;;;;3.35;1.02;;;23.20;71.40;;;;;;4989051;28;20029;-74
2022/07/17 11:06:30;;;;;;;3.35;1.25;;;23.30;69.40;;;;;;5003847;28;20014;-74
2022/07/17 11:08:58;;;;;;;2.00;0.70;;;23.40;70.70;;;;;;5003351;28;20333;-74
2022/07/17 11:11:47;;;;;;;3.35;1.35;;;23.50;71.30;;;;;;5003522;28;20034;-74
2022/07/17 11:14:24;;;;;;;4.35;1.30;;;23.60;72.90;;;;;;5003299;28;20268;-74
2022/07/17 11:16:54;;;;;;;3.92;1.40;;;23.70;74.00;;;;;;4990996;28;20304;-74
2022/07/17 11:19:34;;;;;;;4.90;1.15;;;23.80;71.40;;;;;;4983992;28;20023;-74
2022/07/17 11:22:05;;;;;;;2.78;1.00;;;24.00;70.80;;;;;;4983918;28;20127;-74
2022/07/17 11:24:47;;;;;;;4.65;1.30;;;24.20;71.30;;;;;;4951898;28;20041;-74
2022/07/17 11:27:27;;;;;;;2.47;1.10;;;24.30;71.20;;;;;;4996730;28;20069;-74
2022/07/17 11:29:56;;;;;;;2.83;1.00;;;24.30;70.90;;;;;;5004543;28;20033;-74
2022/07/17 11:32:22;;;;;;;5.28;1.30;;;24.40;70.30;;;;;;4987255;28;20029;-74
2022/07/17 11:34:48;;;;;;;2.17;1.23;;;24.40;71.70;;;;;;5003517;28;20413;-80
2022/07/17 11:37:14;;;;;;;2.95;1.35;;;24.50;72.40;;;;;;4987547;28;20034;-79
2022/07/17 11:39:46;;;;;;;4.18;1.65;;;24.60;70.50;;;;;;5003563;28;20253;-80
2022/07/17 11:42:20;;;;;;;3.28;1.20;;;24.70;71.50;;;;;;5003495;28;20026;-79
2022/07/17 11:44:50;;;;;;;3.08;1.25;;;24.90;73.60;;;;;;4987663;28;20076;-80
2022/07/17 11:47:29;;;;;;;2.65;1.20;;;25.00;71.00;;;;;;4987551;28;20317;-80
2022/07/17 11:50:13;;;;;;;2.47;1.35;;;25.10;70.20;;;;;;4977214;28;20018;-80
2022/07/17 11:52:44;;;;;;;1.92;1.10;;;25.20;69.60;;;;;;4954463;28;20034;-78
2022/07/17 11:55:10;;;;;;;1.92;0.98;;;25.30;60.70;;;;;;4983144;28;20066;-78
2022/07/17 11:57:50;;;;;;;1.65;0.90;;;25.40;63.00;;;;;;4966639;28;20026;-79
2022/07/17 12:00:18;;;;;;;2.92;1.17;;;25.60;65.70;;;;;;5002723;28;20026;-78
2022/07/17 12:02:44;;;;;;;4.15;1.50;;;25.70;64.90;;;;;;5002293;28;20191;-80
2022/07/17 12:05:10;;;;;;;2.55;1.33;;;25.90;66.70;;;;;;5002553;28;20041;-78
2022/07/17 12:07:46;;;;;;;1.92;0.90;;;26.10;65.20;;;;;;5002439;28;20037;-78
2022/07/17 12:10:21;;;;;;;3.33;0.85;;;26.30;67.00;;;;;;4986842;28;20029;-78
2022/07/17 12:13:04;;;;;;;1.33;0.98;;;26.50;65.90;;;;;;4987024;28;20048;-79
2022/07/17 12:15:49;;;;;;;3.28;1.00;;;26.70;69.70;;;;;;5002500;28;20030;-78
2022/07/17 12:18:28;;;;;;;3.45;1.10;;;26.90;68.00;;;;;;5002264;28;20030;-79
2022/07/17 12:20:57;;;;;;;1.27;1.00;;;27.00;67.20;;;;;;4986235;28;20034;-78
2022/07/17 12:23:38;;;;;;;2.10;0.80;;;27.30;69.10;;;;;;5002088;28;20030;-78
2022/07/17 12:26:16;;;;;;;2.15;0.80;;;27.20;62.60;;;;;;5002189;28;20040;-77
2022/07/17 12:28:42;;;;;;;2.55;0.90;;;27.40;65.30;;;;;;5001475;28;20023;-78
2022/07/17 12:31:08;;;;;;;2.00;1.00;;;27.50;64.60;;;;;;5002247;28;20068;-78
2022/07/17 12:33:34;;;;;;;2.88;0.88;;;27.70;59.90;;;;;;5003070;28;20030;-78
2022/07/17 12:36:00;;;;;;;4.18;1.58;;;27.60;59.10;;;;;;4985842;28;20018;-78
2022/07/17 12:38:25;;;;;;;3.92;1.00;;;27.50;58.90;;;;;;4985574;28;20042;-78
2022/07/17 12:40:51;;;;;;;2.10;1.20;;;27.60;60.60;;;;;;4985925;28;20028;-77
2022/07/17 12:43:17;;;;;;;4.88;1.15;;;27.70;60.90;;;;;;5002482;28;20080;-77
2022/07/17 12:45:43;;;;;;;1.40;0.95;;;28.00;60.40;;;;;;5001996;28;20022;-77
2022/07/17 12:48:08;;;;;;;2.90;1.20;;;28.10;61.20;;;;;;5002903;28;20042;-77
2022/07/17 12:50:34;;;;;;;2.25;1.25;;;28.40;66.90;;;;;;5003034;28;20053;-77